Atlantic City, NJ

2:28 AM EST on March 03, 2015 (GMT -0500)
Miller | Change Station
CLOSE
Current Station
Airport
Location: Toms River,
Elevation: 82 ft
Nearby Weather Stations
Active Advisory: Special Statement

Elev 82 ft 39.93 °N, 74.29 °W | Updated 13 minutes ago

Clear
Clear
25 °F
Feels Like 19 °F
N
5
Wind Variable Wind from North

Today
High -- | Low -- °F
--% Chance of Precip.
Yesterday
High -- | Low -- °F
Precip. -- in
6:27 AM 5:52 PM
Waxing Gibbous, 95% visible
Pressure 30.40 in
Visibility 10.0 miles
Clouds Clear
Windchill 19 °F
Dew Point 10 °F
Humidity 54%
Rainfall 0.00 in
Snow Depth Not available.
UV 0 out of 12
Pollen 2.20 out of 12
Air Quality Not available.
Flu Activity Not available.
METAR KMJX 030715Z AUTO 36004KT 10SM CLR M04/M12 A3040 RMK AO1

More Conditions Fewer Conditions

Pressure 30.40 in
Visibility 10.0 miles
Clouds Clear
Windchill 19 °F
Dew Point 10 °F
Humidity 54%
Rainfall 0.00 in
Snow Depth Not available.
UV 0 out of 12
Pollen 2.20 out of 12
Air Quality Not available.
Flu Activity Not available.
METAR KMJX 030715Z AUTO 36004KT 10SM CLR M04/M12 A3040 RMK AO1

More Conditions Fewer Conditions

10-Day Weather Forecast

Almanac

Astronomy

Mar. 03, 2015 Rise Set
Actual Time
Civil Twilight
Nautical Twilight
Astronomical Twilight
Moon
Length of Visible Light
Length of Day
Tomorrow will be .
, % of the Moon is Illuminated

Today's Extremes

State Highs State Lows

Community

WunderPhotos

Upload Photos

1,802,073 photos uploaded!

WunderBlogs® & News

Nearby

Air Quality

  Air Quality AQ Index Pollutant
Not available.

Snow Depth

Station Depth Elevation

Earthquake Activity

City Distance Mag. Time & Date
Minimum magnitude displayed is 2.5.

Coastal Water Temperatures

Place Temperature

Nearby Weather Stations

Special Statement
Statement as of 10:44 PM EST on March 02, 2015

... Patchy ice overnight into Tuesday morning...

Temperatures rose above freezing on Monday in much of eastern
Pennsylvania and in all of New Jersey, Delaware and northeastern
Maryland. There was a fair amount of runoff from melting snow and
ice.

Standing water on roads, walkways and parking lots began to
freeze this evening. Overnight temperatures should fall into the
single digits in the Poconos and northern New Jersey, and into the
10 to 20 degree range elsewhere.

If you will be going out overnight or on Tuesday morning, be
prepared for slippery spots. Use extra caution if driving.


Iovino